Time;durP1;ratioP1;P1;durP2;ratioP2;P2;SDS_P1;SDS_P2;PMS_P1;PMS_P2;Temp;Humidity;BMP_temperature;BMP_pressure;BME280_temperature;BME280_humidity;BME280_pressure;Samples;Min_cycle;Max_cycle;Signal;HPM_P1;HPM_P2
2021/04/01 00:00:10;;;;;;;68.75;43.33;;;333.30;1766.40;;;;;;5053181;28;20029;-67
2021/04/01 00:02:36;;;;;;;81.97;49.10;;;333.30;1766.40;;;;;;5053592;28;20486;-67
2021/04/01 00:05:04;;;;;;;96.30;59.65;;;333.30;1792.00;;;;;;5053702;28;20363;-67
2021/04/01 00:07:30;;;;;;;107.15;61.90;;;333.30;1817.60;;;;;;5053522;28;20500;-67
2021/04/01 00:09:56;;;;;;;107.88;65.65;;;333.30;1843.20;;;;;;5053689;28;20021;-67
2021/04/01 00:12:22;;;;;;;83.82;53.85;;;333.30;1843.20;;;;;;5063596;28;20028;-62
2021/04/01 00:14:49;;;;;;;89.90;55.83;;;333.30;1817.60;;;;;;5071995;28;20028;-61
2021/04/01 00:17:15;;;;;;;102.53;64.53;;;333.30;1817.60;;;;;;5073261;28;20028;-67
2021/04/01 00:19:41;;;;;;;103.68;62.50;;;333.30;1817.60;;;;;;5073124;28;20020;-67
2021/04/01 00:22:07;;;;;;;113.63;68.55;;;333.30;1817.60;;;;;;5072230;28;20029;-62
2021/04/01 00:24:33;;;;;;;113.57;68.88;;;333.30;1817.60;;;;;;5073082;28;20112;-62
2021/04/01 00:26:59;;;;;;;114.53;67.90;;;333.30;1817.60;;;;;;5073384;28;20059;-61
2021/04/01 00:29:25;;;;;;;109.20;68.00;;;333.30;1817.60;;;;;;5073372;28;20075;-67
2021/04/01 00:31:51;;;;;;;109.30;66.47;;;333.10;1843.20;;;;;;5073346;28;20056;-64
2021/04/01 00:34:17;;;;;;;107.70;68.00;;;333.00;1843.20;;;;;;5073322;28;20032;-61
2021/04/01 00:36:43;;;;;;;113.25;67.93;;;333.00;1868.80;;;;;;5073174;28;20044;-67
2021/04/01 00:39:09;;;;;;;106.90;65.10;;;333.00;1843.20;;;;;;5073487;28;20059;-62
2021/04/01 00:41:38;;;;;;;103.70;60.10;;;333.00;1843.20;;;;;;5073442;28;20385;-66
2021/04/01 00:44:05;;;;;;;89.10;53.55;;;333.00;1817.60;;;;;;5073302;28;20385;-61
2021/04/01 00:46:31;;;;;;;87.10;53.50;;;333.00;1817.60;;;;;;5073219;28;20538;-61
2021/04/01 00:48:57;;;;;;;89.88;53.95;;;332.90;1817.60;;;;;;5073233;28;20029;-61
2021/04/01 00:51:23;;;;;;;92.07;53.17;;;332.90;1817.60;;;;;;5073143;28;20029;-66
2021/04/01 00:53:49;;;;;;;87.38;54.30;;;332.90;1817.60;;;;;;5073126;28;20376;-62
2021/04/01 00:56:16;;;;;;;82.10;48.58;;;332.90;1817.60;;;;;;5073226;28;20024;-67
2021/04/01 00:58:43;;;;;;;89.18;53.38;;;332.90;1817.60;;;;;;5055142;28;20033;-63
2021/04/01 01:03:34;;;;;;;90.38;54.70;;;332.90;1817.60;;;;;;5073054;28;20032;-67
2021/04/01 01:06:00;;;;;;;88.15;53.75;;;332.80;1843.20;;;;;;5073026;28;20476;-61
2021/04/01 01:08:26;;;;;;;84.88;50.10;;;332.80;1843.20;;;;;;5073031;28;20055;-68
2021/04/01 01:10:52;;;;;;;93.63;56.55;;;332.80;1817.60;;;;;;5073293;28;20027;-67
2021/04/01 01:13:18;;;;;;;106.07;60.97;;;308.10;1817.60;;;;;;5076921;28;20028;-62
2021/04/01 01:15:44;;;;;;;97.43;58.75;;;308.10;1817.60;;;;;;5076803;28;20020;-67
2021/04/01 01:18:10;;;;;;;99.35;58.65;;;307.90;1843.20;;;;;;5076767;28;20036;-65
2021/04/01 01:20:36;;;;;;;101.20;60.92;;;308.00;1843.20;;;;;;5076681;28;20032;-61
2021/04/01 01:23:08;;;;;;;103.07;60.08;;;308.00;1817.60;;;;;;5076646;28;20081;-61
2021/04/01 01:25:35;;;;;;;98.18;53.58;;;308.00;1843.20;;;;;;5076652;28;20020;-67
2021/04/01 01:28:03;;;;;;;112.28;61.05;;;308.00;1817.60;;;;;;5076617;28;20020;-61
2021/04/01 01:30:29;;;;;;;87.25;50.95;;;308.00;1817.60;;;;;;5058585;28;20503;-63
2021/04/01 01:32:58;;;;;;;81.85;46.70;;;308.00;1817.60;;;;;;5076555;28;20100;-67
2021/04/01 01:35:29;;;;;;;81.88;46.05;;;308.00;1792.00;;;;;;5076267;28;20032;-67
2021/04/01 01:38:01;;;;;;;79.85;47.78;;;307.90;1792.00;;;;;;5076572;28;20024;-66
2021/04/01 01:40:28;;;;;;;78.80;46.78;;;307.90;1792.00;;;;;;5076258;28;20021;-67
2021/04/01 01:42:57;;;;;;;80.35;47.50;;;307.90;1792.00;;;;;;5076341;28;20469;-61
2021/04/01 01:45:23;;;;;;;83.75;47.90;;;307.90;1792.00;;;;;;5076305;28;20382;-61
2021/04/01 01:47:50;;;;;;;83.68;50.38;;;307.90;1792.00;;;;;;5076201;28;20101;-61
2021/04/01 01:50:19;;;;;;;84.93;45.42;;;307.90;1792.00;;;;;;5058303;28;20512;-66
2021/04/01 01:52:45;;;;;;;82.60;48.15;;;307.90;1792.00;;;;;;5076096;28;20048;-67
2021/04/01 01:55:12;;;;;;;83.22;48.05;;;307.80;1792.00;;;;;;5076044;28;20113;-67
2021/04/01 01:57:39;;;;;;;83.25;46.75;;;307.80;1792.00;;;;;;5076003;28;20039;-61
2021/04/01 02:00:11;;;;;;;90.03;52.38;;;307.80;1792.00;;;;;;5075916;28;20528;-67
2021/04/01 02:02:37;;;;;;;75.10;42.53;;;307.80;1817.60;;;;;;5075944;28;20031;-64
2021/04/01 02:05:06;;;;;;;77.82;44.00;;;307.70;1792.00;;;;;;5075953;28;20056;-66
2021/04/01 02:07:33;;;;;;;73.38;42.28;;;307.70;1792.00;;;;;;5075985;28;20021;-61
2021/04/01 02:09:59;;;;;;;72.70;44.00;;;307.70;1792.00;;;;;;5075843;28;20480;-61
2021/04/01 02:12:25;;;;;;;83.05;46.85;;;307.70;1792.00;;;;;;5075800;28;20026;-67
2021/04/01 02:14:51;;;;;;;85.50;49.55;;;307.70;1817.60;;;;;;5075653;28;20103;-61
2021/04/01 02:17:23;;;;;;;91.70;54.47;;;307.60;1817.60;;;;;;5075779;28;20025;-67
2021/04/01 02:19:56;;;;;;;105.50;62.40;;;307.50;1843.20;;;;;;5075599;28;20477;-61
2021/04/01 02:22:22;;;;;;;114.93;67.35;;;307.40;1868.80;;;;;;5075202;28;20048;-67
2021/04/01 02:24:48;;;;;;;87.97;54.20;;;307.40;1894.40;;;;;;5075601;28;20070;-62
2021/04/01 02:27:14;;;;;;;94.60;57.38;;;307.40;1868.80;;;;;;5075519;28;20024;-67
2021/04/01 02:29:40;;;;;;;100.72;58.55;;;307.40;1868.80;;;;;;5057509;28;20032;-65
2021/04/01 02:32:07;;;;;;;94.25;56.70;;;307.50;1868.80;;;;;;5075414;28;20028;-61
2021/04/01 02:34:32;;;;;;;83.97;51.85;;;307.50;1868.80;;;;;;5075404;28;20377;-66
2021/04/01 02:36:58;;;;;;;99.10;57.03;;;307.40;1843.20;;;;;;5057230;28;20045;-62
2021/04/01 02:39:24;;;;;;;81.18;51.00;;;307.40;1843.20;;;;;;5075307;28;20017;-66
2021/04/01 02:41:50;;;;;;;77.82;47.15;;;307.40;1843.20;;;;;;5075231;28;20039;-62
2021/04/01 02:44:16;;;;;;;69.35;43.53;;;307.40;1843.20;;;;;;5075225;28;20025;-67
2021/04/01 02:46:42;;;;;;;80.10;46.70;;;307.40;1843.20;;;;;;5075240;28;20380;-66
2021/04/01 02:49:08;;;;;;;79.13;44.42;;;307.40;1843.20;;;;;;5075148;28;20033;-62
2021/04/01 02:51:34;;;;;;;82.93;49.60;;;307.40;1843.20;;;;;;5075049;28;20027;-61
2021/04/01 02:54:00;;;;;;;87.30;48.35;;;307.40;1868.80;;;;;;5074987;28;20472;-67
2021/04/01 02:56:26;;;;;;;85.22;48.40;;;307.40;1868.80;;;;;;5075040;28;20079;-67
2021/04/01 02:58:51;;;;;;;91.68;50.28;;;307.40;1868.80;;;;;;5074967;28;20020;-67
2021/04/01 03:01:17;;;;;;;86.40;52.10;;;307.40;1868.80;;;;;;5074875;28;20524;-67
2021/04/01 03:03:46;;;;;;;84.03;50.58;;;307.40;1868.80;;;;;;5074787;28;20025;-61
2021/04/01 03:06:12;;;;;;;90.80;53.65;;;307.30;1868.80;;;;;;5056843;28;20511;-61
2021/04/01 03:08:38;;;;;;;89.43;51.08;;;307.30;1894.40;;;;;;5074666;28;20025;-65
2021/04/01 03:11:04;;;;;;;88.05;52.03;;;307.30;1894.40;;;;;;5074697;28;20028;-58
2021/04/01 03:13:30;;;;;;;82.20;52.42;;;307.30;1920.00;;;;;;5056665;28;20024;-58
2021/04/01 03:15:56;;;;;;;88.15;55.78;;;307.20;1920.00;;;;;;5074518;28;20153;-65
2021/04/01 03:18:22;;;;;;;92.00;57.72;;;307.30;1920.00;;;;;;5074538;28;20031;-64
2021/04/01 03:20:49;;;;;;;96.25;58.53;;;307.20;1920.00;;;;;;5074671;28;20048;-61
2021/04/01 03:23:15;;;;;;;95.18;57.42;;;307.30;1920.00;;;;;;5074378;28;20100;-65
2021/04/01 03:25:41;;;;;;;95.72;58.95;;;307.20;1920.00;;;;;;5074430;28;20408;-58
2021/04/01 03:28:07;;;;;;;111.93;63.95;;;307.20;1920.00;;;;;;5074295;28;20025;-65
2021/04/01 03:30:33;;;;;;;106.18;64.43;;;307.20;1920.00;;;;;;5074292;28;20029;-59
2021/04/01 03:32:59;;;;;;;109.78;63.42;;;307.20;1920.00;;;;;;5074207;28;20107;-59
2021/04/01 03:35:25;;;;;;;101.70;58.40;;;307.20;1920.00;;;;;;5073356;28;20190;-64
2021/04/01 03:37:55;;;;;;;102.28;61.20;;;307.20;1920.00;;;;;;5074134;28;20094;-65
2021/04/01 03:40:22;;;;;;;93.85;57.88;;;282.50;1894.40;;;;;;5073956;28;20035;-64
2021/04/01 03:42:48;;;;;;;96.65;58.83;;;282.50;1894.40;;;;;;5074040;28;20028;-59
2021/04/01 03:45:15;;;;;;;92.43;55.60;;;282.50;1894.40;;;;;;5074048;28;20032;-64
2021/04/01 03:47:42;;;;;;;105.50;60.40;;;282.50;1894.40;;;;;;5055972;28;20063;-64
2021/04/01 03:50:10;;;;;;;105.80;64.30;;;282.50;1894.40;;;;;;5073904;28;20028;-60
2021/04/01 03:52:38;;;;;;;98.68;62.33;;;282.40;1920.00;;;;;;5073905;28;20033;-64
2021/04/01 03:55:36;;;;;;;93.15;56.00;;;282.30;1920.00;;;;;;5073863;28;20028;-64
2021/04/01 03:57:56;;;;;;;94.07;56.15;;;282.30;1920.00;;;;;;5073227;28;20101;-58
2021/04/01 04:00:32;;;;;;;99.93;61.20;;;282.30;1920.00;;;;;;5073622;28;20032;-64
2021/04/01 04:08:29;;;;;;;;;;;282.30;1920.00;;;;;;5074431;28;20030;-59
2021/04/01 04:11:06;;;;;;;99.45;57.22;;;282.30;1920.00;;;;;;5073594;28;19911;-64
2021/04/01 04:16:10;;;;;;;98.45;57.47;;;282.20;1920.00;;;;;;5073880;28;20025;-59
2021/04/01 04:18:36;;;;;;;97.50;58.83;;;282.10;1920.00;;;;;;5073585;28;20089;-65
2021/04/01 04:21:02;;;;;;;99.95;59.95;;;282.20;1920.00;;;;;;5055409;28;20025;-66
2021/04/01 04:23:28;;;;;;;98.05;60.55;;;282.20;1945.60;;;;;;5073520;28;20032;-64
2021/04/01 04:25:56;;;;;;;96.50;60.78;;;282.10;1945.60;;;;;;5073451;28;20028;-59
2021/04/01 04:28:31;;;;;;;106.43;64.18;;;281.80;1971.20;;;;;;5073409;28;20404;-64
2021/04/01 04:30:57;;;;;;;106.82;61.53;;;281.80;1996.80;;;;;;5073695;28;20047;-59
2021/04/01 04:33:23;;;;;;;101.32;60.17;;;281.80;1971.20;;;;;;5073350;28;20477;-64
2021/04/01 04:35:49;;;;;;;97.70;56.78;;;281.90;1971.20;;;;;;5073150;28;20048;-59
2021/04/01 04:38:15;;;;;;;97.93;57.72;;;281.90;1971.20;;;;;;5073312;28;20024;-59
2021/04/01 04:40:41;;;;;;;103.00;61.55;;;281.90;1945.60;;;;;;5073236;28;20033;-65
2021/04/01 04:43:07;;;;;;;99.10;60.65;;;282.00;1971.20;;;;;;5073333;28;20017;-59
2021/04/01 04:45:33;;;;;;;106.50;58.85;;;282.00;1971.20;;;;;;5057018;28;20031;-59
2021/04/01 04:47:59;;;;;;;93.38;56.67;;;282.10;1945.60;;;;;;5077387;28;20012;-60
2021/04/01 04:50:25;;;;;;;108.32;66.20;;;282.10;1945.60;;;;;;5077361;28;20017;-59
2021/04/01 04:52:51;;;;;;;101.90;65.55;;;282.10;1945.60;;;;;;5077239;28;20048;-65
2021/04/01 04:55:18;;;;;;;100.40;62.45;;;282.10;1971.20;;;;;;5077074;28;20105;-59
2021/04/01 05:05:41;;;;;;;87.85;55.60;;;282.10;1971.20;;;;;;5077146;28;20031;-67
2021/04/01 05:08:07;;;;;;;85.50;54.05;;;282.10;1996.80;;;;;;5059080;28;20035;-63
2021/04/01 05:10:33;;;;;;;94.00;54.35;;;282.10;1971.20;;;;;;5076955;28;20029;-65
2021/04/01 05:13:09;;;;;;;89.43;53.05;;;282.10;1971.20;;;;;;5076872;28;20496;-63
2021/04/01 05:15:41;;;;;;;76.85;50.90;;;282.10;1971.20;;;;;;5058942;28;20028;-64
2021/04/01 05:20:45;;;;;;;81.00;49.97;;;282.20;1971.20;;;;;;5059821;28;20029;-66
2021/04/01 05:23:23;;;;;;;81.10;50.28;;;282.20;1971.20;;;;;;5077033;28;20431;-68
2021/04/01 05:25:50;;;;;;;88.32;52.05;;;282.20;1971.20;;;;;;5076739;28;20047;-67
2021/04/01 05:28:22;;;;;;;84.68;53.28;;;282.30;1971.20;;;;;;5058641;28;20031;-66
2021/04/01 05:30:48;;;;;;;74.53;49.05;;;282.30;1971.20;;;;;;5076621;28;20052;-62
2021/04/01 05:33:15;;;;;;;80.03;51.10;;;282.30;1971.20;;;;;;5076745;28;20440;-67
2021/04/01 05:35:42;;;;;;;79.03;51.42;;;282.40;1945.60;;;;;;5076372;28;20127;-62
2021/04/01 05:38:08;;;;;;;75.50;52.35;;;282.40;1945.60;;;;;;5058598;28;20469;-66
2021/04/01 05:40:34;;;;;;;87.75;55.38;;;282.40;1945.60;;;;;;5076319;28;20068;-67
2021/04/01 05:43:05;;;;;;;90.75;58.42;;;282.50;1945.60;;;;;;5076334;28;20077;-62
2021/04/01 05:45:46;;;;;;;81.57;52.63;;;282.50;1945.60;;;;;;5076348;28;20032;-62
2021/04/01 05:48:22;;;;;;;85.03;51.90;;;307.20;1971.20;;;;;;5076309;28;20377;-67
2021/04/01 05:51:40;;;;;;;101.15;58.28;;;307.30;1971.20;;;;;;5076532;28;20037;-64
2021/04/01 06:02:23;;;;;;;74.45;50.50;;;307.70;1971.20;;;;;;5031304;28;20440;-60
2021/04/01 06:05:00;;;;;;;79.65;51.03;;;307.80;1971.20;;;;;;5076054;28;20024;-61
2021/04/01 06:07:36;;;;;;;86.07;55.25;;;307.90;1971.20;;;;;;5075985;28;20033;-67
2021/04/01 06:10:02;;;;;;;87.28;56.33;;;308.00;1971.20;;;;;;5075923;28;20095;-62
2021/04/01 06:12:33;;;;;;;75.03;53.88;;;332.80;1971.20;;;;;;5075919;28;20361;-62
2021/04/01 06:15:10;;;;;;;75.43;50.95;;;332.90;1971.20;;;;;;5075810;28;20052;-63
2021/04/01 06:17:48;;;;;;;62.08;44.28;;;333.10;1971.20;;;;;;5051408;28;20074;-63
2021/04/01 06:20:15;;;;;;;61.83;42.33;;;333.30;1920.00;;;;;;5056661;28;20056;-64
2021/04/01 06:22:43;;;;;;;62.45;43.40;;;333.40;1920.00;;;;;;5064476;28;20059;-62
2021/04/01 06:25:13;;;;;;;60.70;42.35;;;333.50;1894.40;;;;;;5074008;28;20021;-64
2021/04/01 06:27:48;;;;;;;65.63;44.47;;;333.70;1868.80;;;;;;5065390;28;20033;-64
2021/04/01 06:30:23;;;;;;;65.72;43.63;;;358.50;1868.80;;;;;;5081244;28;20113;-64
2021/04/01 06:33:12;;;;;;;53.35;40.90;;;358.70;1843.20;;;;;;5076971;28;20033;-64
2021/04/01 06:38:23;;;;;;;47.85;35.47;;;410.10;1689.60;;;;;;5095661;28;20423;-61
2021/04/01 06:40:58;;;;;;;52.30;36.92;;;512.60;1331.20;;;;;;5095865;28;20043;-69
2021/04/01 06:43:33;;;;;;;48.83;31.45;;;589.70;1100.80;;;;;;5095413;28;20026;-62
2021/04/01 06:46:07;;;;;;;44.08;32.78;;;640.60;947.20;;;;;;5095391;28;20050;-63
2021/04/01 06:49:32;;;;;;;;;;;691.70;844.80;;;;;;5095692;28;20026;-69
2021/04/01 06:51:36;;;;;;;34.65;29.23;;;717.20;844.80;;;;;;5082832;28;19915;-62
2021/04/01 06:54:19;;;;;;;34.40;26.15;;;691.80;844.80;;;;;;5094371;28;20055;-64
2021/04/01 06:59:51;;;;;;;35.78;25.17;;;665.90;896.00;;;;;;5094342;28;20070;-61
2021/04/01 07:02:26;;;;;;;32.40;24.63;;;666.50;870.40;;;;;;5094232;28;20032;-62
2021/04/01 07:04:55;;;;;;;26.02;22.40;;;742.40;819.20;;;;;;5094744;28;20020;-62
2021/04/01 07:07:23;;;;;;;29.98;22.55;;;794.00;742.40;;;;;;5094994;28;20016;-69
2021/04/01 07:10:11;;;;;;;33.40;22.95;;;820.10;691.20;;;;;;5094919;28;20476;-62
2021/04/01 07:12:40;;;;;;;26.38;20.60;;;870.60;614.40;;;;;;5094965;28;20074;-69
2021/04/01 07:15:12;;;;;;;31.45;20.10;;;896.00;614.40;;;;;;5094873;28;20376;-69
2021/04/01 07:17:45;;;;;;;27.20;21.67;;;870.70;640.00;;;;;;5094925;28;20072;-65
2021/04/01 07:20:38;;;;;;;28.75;21.30;;;794.10;742.40;;;;;;5095073;28;20024;-62
2021/04/01 07:32:49;;;;;;;31.95;23.95;;;640.80;921.60;;;;;;4973836;28;20078;-69
2021/04/01 07:35:46;;;;;;;35.10;27.40;;;640.30;947.20;;;;;;4973187;28;20031;-70
2021/04/01 07:46:39;;;;;;;31.88;17.23;;;614.50;1024.00;;;;;;4953473;28;20045;-68
2021/04/01 07:49:17;;;;;;;23.15;16.50;;;614.40;1024.00;;;;;;4973370;28;20409;-69
2021/04/01 07:51:59;;;;;;;16.20;11.27;;;589.60;1049.60;;;;;;4973292;28;20077;-70
2021/04/01 08:00:30;;;;;;;16.23;10.52;;;589.10;1075.20;;;;;;4973051;28;20109;-67
2021/04/01 08:05:56;;;;;;;17.33;11.75;;;588.90;1075.20;;;;;;5059728;28;20032;-69
2021/04/01 08:08:24;;;;;;;13.93;10.20;;;588.80;1100.80;;;;;;5093944;28;20032;-70
2021/04/01 08:11:02;;;;;;;12.90;8.70;;;588.80;1100.80;;;;;;5075755;28;20028;-62
2021/04/01 08:13:33;;;;;;;15.43;9.95;;;563.90;1075.20;;;;;;5093928;28;20024;-66
2021/04/01 08:16:05;;;;;;;10.85;8.50;;;563.80;1126.40;;;;;;5093753;28;20020;-73
2021/04/01 08:18:39;;;;;;;18.75;9.43;;;563.70;1100.80;;;;;;5093802;28;20020;-64
2021/04/01 08:21:10;;;;;;;16.02;8.65;;;563.60;1126.40;;;;;;5093246;28;20028;-69
2021/04/01 08:23:58;;;;;;;13.10;8.27;;;563.80;1126.40;;;;;;5065096;28;20036;-70
2021/04/01 08:32:43;;;;;;;13.85;7.88;;;563.90;1126.40;;;;;;5027692;28;20052;-70
2021/04/01 08:34:48;;;;;;;17.50;8.68;;;563.80;1100.80;;;;;;5072069;28;20500;-70
2021/04/01 08:37:17;;;;;;;14.52;7.90;;;563.80;1100.80;;;;;;5072042;28;20048;-70
2021/04/01 08:39:48;;;;;;;14.50;9.82;;;563.80;1100.80;;;;;;5072890;28;20028;-70
2021/04/01 08:42:34;;;;;;;13.85;7.82;;;563.90;1100.80;;;;;;5072456;28;20060;-69
2021/04/01 08:45:30;;;;;;;12.73;8.07;;;563.90;1126.40;;;;;;5071981;28;20381;-69
2021/04/01 08:48:05;;;;;;;15.63;8.25;;;563.70;1126.40;;;;;;5028930;28;20086;-70
2021/04/01 08:50:52;;;;;;;17.20;9.38;;;563.80;1126.40;;;;;;5072830;28;20031;-70
2021/04/01 08:53:48;;;;;;;11.38;7.53;;;563.80;1126.40;;;;;;5071952;28;20029;-70
2021/04/01 08:56:25;;;;;;;20.95;8.65;;;563.70;1152.00;;;;;;5073009;28;20016;-70
2021/04/01 08:59:15;;;;;;;14.88;7.93;;;563.80;1152.00;;;;;;5072253;28;20024;-73
2021/04/01 09:01:42;;;;;;;11.80;8.10;;;563.80;1126.40;;;;;;5072521;28;20029;-70
2021/04/01 09:04:09;;;;;;;13.15;7.93;;;563.70;1126.40;;;;;;5072035;28;20032;-70
2021/04/01 09:06:39;;;;;;;13.27;8.48;;;563.70;1126.40;;;;;;5072367;28;20377;-69
2021/04/01 09:09:27;;;;;;;17.45;8.13;;;563.70;1152.00;;;;;;5072520;28;20017;-69
2021/04/01 09:11:59;;;;;;;11.02;7.55;;;563.70;1126.40;;;;;;5072217;28;20509;-70
2021/04/01 09:14:30;;;;;;;15.65;7.55;;;563.70;1126.40;;;;;;5072342;28;20013;-69
2021/04/01 09:17:10;;;;;;;11.35;8.45;;;563.60;1126.40;;;;;;5067576;28;20036;-70
2021/04/01 09:19:37;;;;;;;13.07;7.25;;;563.60;1126.40;;;;;;5068467;28;20029;-70
2021/04/01 09:22:13;;;;;;;11.52;8.30;;;563.60;1152.00;;;;;;5085469;28;20908;-69
2021/04/01 09:24:40;;;;;;;13.88;9.48;;;563.70;1152.00;;;;;;5071909;28;20028;-69
2021/04/01 09:27:11;;;;;;;13.77;8.75;;;563.70;1152.00;;;;;;5070922;28;20037;-70
2021/04/01 09:29:46;;;;;;;12.48;8.02;;;563.70;1152.00;;;;;;5072413;28;20054;-69
2021/04/01 09:32:14;;;;;;;14.70;8.82;;;563.70;1177.60;;;;;;5078605;28;20035;-70
2021/04/01 09:34:45;;;;;;;12.13;7.70;;;563.70;1152.00;;;;;;5086607;28;20053;-69
2021/04/01 09:37:17;;;;;;;13.75;8.15;;;563.80;1126.40;;;;;;5083142;28;20040;-69
2021/04/01 09:39:43;;;;;;;15.88;8.52;;;563.70;1152.00;;;;;;5062253;28;20497;-70
2021/04/01 09:42:18;;;;;;;12.85;7.82;;;563.80;1126.40;;;;;;5073853;28;20162;-73
2021/04/01 09:45:14;;;;;;;15.15;8.65;;;563.80;1100.80;;;;;;5075392;28;20429;-69
2021/04/01 09:47:50;;;;;;;18.88;7.88;;;563.80;1152.00;;;;;;5069127;28;20037;-66
2021/04/01 09:50:17;;;;;;;15.18;7.90;;;563.70;1177.60;;;;;;5037581;28;20045;-70
2021/04/01 09:52:57;;;;;;;14.23;7.93;;;563.80;1177.60;;;;;;5058524;28;20101;-69
2021/04/01 09:55:23;;;;;;;14.43;7.88;;;563.80;1126.40;;;;;;5090341;28;20032;-69
2021/04/01 09:57:52;;;;;;;10.65;7.20;;;563.80;1100.80;;;;;;5095309;28;20020;-64
2021/04/01 10:00:48;;;;;;;10.68;6.72;;;563.90;1126.40;;;;;;5082888;28;20133;-68
2021/04/01 10:03:33;;;;;;;13.60;7.43;;;563.90;1100.80;;;;;;5083788;28;20370;-67
2021/04/01 10:05:59;;;;;;;15.13;8.70;;;564.00;1100.80;;;;;;5074874;28;20029;-68
2021/04/01 10:08:27;;;;;;;15.45;7.47;;;588.80;1177.60;;;;;;5072362;28;20429;-67
2021/04/01 10:10:56;;;;;;;13.93;8.48;;;588.80;1126.40;;;;;;5045759;28;20345;-65
2021/04/01 10:13:24;;;;;;;12.68;8.25;;;588.80;1152.00;;;;;;5065107;28;20020;-66
2021/04/01 10:15:51;;;;;;;14.02;8.13;;;588.90;1126.40;;;;;;5062457;28;20456;-63
2021/04/01 10:18:24;;;;;;;15.45;8.00;;;588.90;1152.00;;;;;;5061437;28;20024;-69
2021/04/01 10:20:58;;;;;;;22.58;9.00;;;589.00;1126.40;;;;;;5062878;28;20039;-68
2021/04/01 10:23:25;;;;;;;17.70;8.07;;;589.00;1126.40;;;;;;5059737;28;20027;-64
2021/04/01 10:25:55;;;;;;;16.52;7.40;;;588.90;1126.40;;;;;;5062168;28;20066;-63
2021/04/01 10:28:45;;;;;;;27.02;10.73;;;588.90;1126.40;;;;;;5064399;28;20466;-65
2021/04/01 10:31:15;;;;;;;25.58;11.52;;;589.00;1100.80;;;;;;5063203;28;20025;-64
2021/04/01 10:34:04;;;;;;;12.88;8.75;;;589.20;1152.00;;;;;;5062178;28;20025;-63
2021/04/01 10:36:32;;;;;;;13.75;6.68;;;589.10;1126.40;;;;;;5062609;28;20049;-64
2021/04/01 10:39:16;;;;;;;12.25;8.25;;;589.10;1126.40;;;;;;5062698;28;20070;-68
2021/04/01 10:41:53;;;;;;;14.90;8.23;;;589.20;1126.40;;;;;;5064181;28;20090;-64
2021/04/01 10:44:21;;;;;;;12.95;7.63;;;589.20;1152.00;;;;;;5063280;28;20096;-67
2021/04/01 10:46:50;;;;;;;11.35;7.05;;;589.20;1126.40;;;;;;5062168;28;20104;-68
2021/04/01 10:49:22;;;;;;;14.20;7.30;;;589.20;1126.40;;;;;;5062648;28;20020;-69
2021/04/01 10:52:00;;;;;;;15.27;6.68;;;589.20;1126.40;;;;;;5064068;28;20107;-69
2021/04/01 10:54:45;;;;;;;11.13;6.95;;;589.20;1100.80;;;;;;5063654;28;20115;-64
2021/04/01 10:57:27;;;;;;;13.00;7.03;;;589.20;1126.40;;;;;;5062703;28;20108;-69
2021/04/01 10:59:53;;;;;;;14.93;7.38;;;589.20;1126.40;;;;;;5054001;28;20108;-62
2021/04/01 11:02:22;;;;;;;23.25;13.35;;;589.30;1100.80;;;;;;5054352;28;20040;-69
2021/04/01 11:05:03;;;;;;;26.35;7.57;;;589.30;1100.80;;;;;;5053579;28;20031;-67
2021/04/01 11:07:44;;;;;;;9.57;6.43;;;589.40;1100.80;;;;;;5054448;28;20107;-66
2021/04/01 11:10:11;;;;;;;9.27;6.22;;;589.40;1100.80;;;;;;5073717;28;20020;-68
2021/04/01 11:12:38;;;;;;;16.88;6.88;;;589.40;1100.80;;;;;;5073226;28;20025;-65
2021/04/01 11:15:07;;;;;;;15.68;6.53;;;589.40;1075.20;;;;;;5074074;28;20150;-69
2021/04/01 11:17:38;;;;;;;12.07;6.47;;;589.30;1100.80;;;;;;5071757;28;20046;-69
2021/04/01 11:20:05;;;;;;;11.65;5.72;;;589.40;1075.20;;;;;;5069620;28;20032;-70
2021/04/01 11:22:31;;;;;;;13.68;5.38;;;589.40;1024.00;;;;;;5069305;28;20044;-69
2021/04/01 11:24:57;;;;;;;11.00;6.00;;;589.50;1049.60;;;;;;5063251;28;20020;-69
2021/04/01 11:27:23;;;;;;;9.95;5.60;;;589.50;1049.60;;;;;;5067285;28;20029;-65
2021/04/01 11:29:53;;;;;;;12.30;5.97;;;589.50;1049.60;;;;;;5067481;28;20040;-68
2021/04/01 11:32:22;;;;;;;10.10;5.97;;;589.60;1075.20;;;;;;5082323;28;20066;-69
2021/04/01 11:34:49;;;;;;;10.82;6.22;;;589.70;1100.80;;;;;;5078902;28;20150;-63
2021/04/01 11:37:20;;;;;;;12.82;5.97;;;589.70;1049.60;;;;;;5071814;28;20045;-68
2021/04/01 11:39:46;;;;;;;10.00;5.40;;;614.40;1100.80;;;;;;5072439;28;20017;-65
2021/04/01 11:42:17;;;;;;;7.80;5.88;;;614.40;1049.60;;;;;;5073357;28;20170;-68
2021/04/01 11:44:45;;;;;;;11.60;6.43;;;614.50;1049.60;;;;;;5073162;28;20021;-69
2021/04/01 11:47:21;;;;;;;14.00;6.43;;;614.40;1049.60;;;;;;5073479;28;20055;-71
2021/04/01 11:49:49;;;;;;;11.60;6.00;;;614.50;1024.00;;;;;;5064120;28;20024;-68
2021/04/01 11:52:18;;;;;;;9.95;6.45;;;614.50;1024.00;;;;;;5065886;28;20028;-68
2021/04/01 11:54:45;;;;;;;10.88;5.97;;;614.40;1024.00;;;;;;5081405;28;20074;-65
2021/04/01 11:57:20;;;;;;;10.27;6.30;;;614.50;1024.00;;;;;;5071334;28;20499;-65
2021/04/01 11:59:56;;;;;;;10.38;6.10;;;614.50;1075.20;;;;;;5084379;28;20682;-68
2021/04/01 12:02:25;;;;;;;13.95;5.15;;;614.50;1024.00;;;;;;5087153;28;20032;-64
2021/04/01 12:04:54;;;;;;;9.25;5.00;;;614.50;1049.60;;;;;;5083677;28;20012;-67
2021/04/01 12:07:20;;;;;;;11.20;5.18;;;614.50;1024.00;;;;;;5074599;28;20054;-66
2021/04/01 12:09:48;;;;;;;10.25;5.43;;;614.50;998.40;;;;;;5079710;28;20073;-68
2021/04/01 12:12:34;;;;;;;8.38;5.05;;;614.50;1049.60;;;;;;5059453;28;20031;-69
2021/04/01 12:15:04;;;;;;;11.52;5.10;;;614.60;998.40;;;;;;5071993;28;20037;-68
2021/04/01 12:17:32;;;;;;;9.93;5.57;;;614.60;972.80;;;;;;5085438;28;20012;-67
2021/04/01 12:20:00;;;;;;;11.05;5.18;;;614.60;1024.00;;;;;;5085206;28;20040;-68
2021/04/01 12:22:35;;;;;;;8.95;5.22;;;614.80;998.40;;;;;;5069437;28;20028;-68
2021/04/01 12:25:02;;;;;;;8.07;4.93;;;614.80;1024.00;;;;;;5079495;28;20024;-68
2021/04/01 12:27:29;;;;;;;11.80;5.28;;;614.90;1024.00;;;;;;5088929;28;20427;-68
2021/04/01 12:29:55;;;;;;;13.88;5.30;;;614.90;998.40;;;;;;5072824;28;20012;-69
2021/04/01 12:32:28;;;;;;;10.07;4.72;;;614.80;998.40;;;;;;5072592;28;20373;-67
2021/04/01 12:35:13;;;;;;;;;;;614.90;998.40;;;;;;5073026;28;20024;-64
2021/04/01 12:37:40;;;;;;;9.85;4.57;;;614.90;972.80;;;;;;5052345;28;19964;-69
2021/04/01 12:40:18;;;;;;;8.23;5.47;;;614.80;998.40;;;;;;5050662;28;20025;-64
2021/04/01 12:42:44;;;;;;;8.57;5.53;;;614.80;998.40;;;;;;5048996;28;20033;-69
2021/04/01 12:45:20;;;;;;;8.75;4.90;;;614.90;998.40;;;;;;5053515;28;20049;-68
2021/04/01 12:47:46;;;;;;;10.32;4.55;;;614.90;1024.00;;;;;;5046813;28;20029;-67
2021/04/01 12:50:13;;;;;;;9.85;4.70;;;614.90;998.40;;;;;;5052208;28;20026;-69
2021/04/01 12:52:44;;;;;;;9.57;4.50;;;614.90;998.40;;;;;;5052359;28;20104;-68
2021/04/01 12:55:12;;;;;;;15.95;5.18;;;614.90;1024.00;;;;;;5052132;28;20037;-69
2021/04/01 12:57:43;;;;;;;7.90;4.78;;;614.90;972.80;;;;;;5052224;28;20032;-68
2021/04/01 13:00:10;;;;;;;9.57;5.10;;;615.00;947.20;;;;;;5052187;28;20506;-66
2021/04/01 13:02:36;;;;;;;11.55;4.72;;;615.00;947.20;;;;;;5052139;28;20037;-69
2021/04/01 13:05:04;;;;;;;7.28;4.25;;;614.90;921.60;;;;;;5035528;28;20021;-68
2021/04/01 13:07:50;;;;;;;7.22;4.28;;;614.90;921.60;;;;;;5035069;28;20021;-71
2021/04/01 13:12:47;;;;;;;10.13;3.83;;;614.90;896.00;;;;;;5035949;28;20017;-64
2021/04/01 13:15:14;;;;;;;7.07;4.40;;;614.90;947.20;;;;;;5036485;28;20021;-67
2021/04/01 13:17:40;;;;;;;7.90;5.32;;;614.90;947.20;;;;;;5035764;28;20071;-70
2021/04/01 13:20:06;;;;;;;7.25;5.07;;;614.90;921.60;;;;;;5036292;28;20026;-67
2021/04/01 13:22:45;;;;;;;11.55;4.32;;;614.90;896.00;;;;;;5042625;28;20029;-67
2021/04/01 13:25:14;;;;;;;46.42;6.68;;;614.90;921.60;;;;;;5049733;28;20367;-68
2021/04/01 13:27:46;;;;;;;8.05;5.00;;;614.90;947.20;;;;;;5064197;28;20024;-68
2021/04/01 13:30:13;;;;;;;11.93;6.22;;;614.90;921.60;;;;;;5075849;28;20473;-67